Time;durP1;ratioP1;P1;durP2;ratioP2;P2;SDS_P1;SDS_P2;PMS_P1;PMS_P2;Temp;Humidity;BMP_temperature;BMP_pressure;BME280_temperature;BME280_humidity;BME280_pressure;Samples;Min_cycle;Max_cycle;Signal;HPM_P1;HPM_P2
2022/10/06 00:02:26;;;;;;;2.62;2.25;;;16.50;99.90;;;;;;933134;148;27747;-77
2022/10/06 00:04:53;;;;;;;2.10;1.90;;;16.50;99.90;;;;;;933154;148;27358;-77
2022/10/06 00:07:19;;;;;;;3.12;2.00;;;16.60;99.90;;;;;;934197;148;27327;-77
2022/10/06 00:09:46;;;;;;;3.22;2.12;;;16.60;99.90;;;;;;933502;148;27330;-78
2022/10/06 00:12:12;;;;;;;2.35;2.15;;;16.60;99.90;;;;;;934689;148;27360;-78
2022/10/06 00:14:39;;;;;;;2.40;2.20;;;16.60;99.90;;;;;;934137;148;27381;-77
2022/10/06 00:17:06;;;;;;;2.75;2.00;;;16.60;99.90;;;;;;934781;148;27422;-78
2022/10/06 00:19:32;;;;;;;1.90;1.80;;;16.60;99.90;;;;;;934823;148;27318;-78
2022/10/06 00:21:59;;;;;;;2.27;2.08;;;16.60;99.90;;;;;;935536;148;27927;-78
2022/10/06 00:24:26;;;;;;;2.22;2.00;;;16.50;99.90;;;;;;932280;148;27437;-77
2022/10/06 00:26:52;;;;;;;2.40;2.20;;;16.50;99.90;;;;;;933983;148;27391;-78
2022/10/06 00:29:18;;;;;;;2.70;2.15;;;16.60;99.90;;;;;;934484;148;28310;-78
2022/10/06 00:31:45;;;;;;;2.55;2.35;;;16.50;99.90;;;;;;934316;148;27341;-78
2022/10/06 00:34:12;;;;;;;4.60;2.37;;;16.50;99.90;;;;;;934282;148;27303;-78
2022/10/06 00:36:38;;;;;;;2.15;1.95;;;16.50;99.90;;;;;;935540;148;27388;-77
2022/10/06 00:39:05;;;;;;;2.75;2.22;;;16.60;99.90;;;;;;934395;148;27359;-78
2022/10/06 00:41:31;;;;;;;2.27;2.02;;;16.60;99.90;;;;;;935669;148;27970;-77
2022/10/06 00:43:58;;;;;;;2.47;2.02;;;16.60;99.90;;;;;;935220;148;27370;-77
2022/10/06 00:46:39;;;;;;;3.05;2.20;;;16.60;99.90;;;;;;933330;148;27487;-78
2022/10/06 00:49:11;;;;;;;2.00;1.90;;;16.60;99.90;;;;;;935969;148;27306;-78
2022/10/06 00:51:38;;;;;;;2.65;2.12;;;16.60;99.90;;;;;;934380;148;27463;-78
2022/10/06 00:54:05;;;;;;;3.90;2.25;;;16.60;99.90;;;;;;934021;148;27348;-77
2022/10/06 00:56:31;;;;;;;2.95;2.02;;;16.70;99.90;;;;;;933831;148;27780;-77
2022/10/06 00:58:58;;;;;;;2.17;1.95;;;16.70;99.90;;;;;;934611;148;27418;-78
2022/10/06 01:01:24;;;;;;;3.70;1.70;;;16.70;99.90;;;;;;933688;151;27410;-78
2022/10/06 01:03:57;;;;;;;2.77;1.98;;;16.80;99.90;;;;;;935355;151;27382;-77
2022/10/06 01:06:24;;;;;;;2.08;1.75;;;16.80;99.90;;;;;;935541;151;27431;-78
2022/10/06 01:08:50;;;;;;;1.85;1.75;;;16.80;99.90;;;;;;923674;154;27935;-78
2022/10/06 01:11:17;;;;;;;3.50;2.00;;;16.80;99.90;;;;;;935280;151;27367;-77
2022/10/06 01:13:43;;;;;;;6.87;2.12;;;16.80;99.90;;;;;;935100;151;27883;-77
2022/10/06 01:16:10;;;;;;;2.85;1.57;;;16.80;99.90;;;;;;936057;149;27455;-77
2022/10/06 01:18:37;;;;;;;2.33;2.08;;;16.80;99.90;;;;;;934728;151;28785;-77
2022/10/06 01:21:09;;;;;;;2.87;1.82;;;16.80;99.90;;;;;;934185;151;27331;-77
2022/10/06 01:23:35;;;;;;;1.80;1.70;;;16.80;99.90;;;;;;935779;151;27351;-77
2022/10/06 01:26:02;;;;;;;2.95;1.98;;;16.80;99.90;;;;;;928846;154;27346;-77
2022/10/06 01:28:28;;;;;;;2.25;2.05;;;16.80;99.90;;;;;;934995;151;27471;-78
2022/10/06 01:30:56;;;;;;;3.22;1.90;;;16.80;99.90;;;;;;932804;151;27349;-78
2022/10/06 01:33:22;;;;;;;2.72;2.00;;;16.70;99.90;;;;;;935402;151;27337;-77
2022/10/06 01:35:48;;;;;;;2.40;2.00;;;16.70;99.90;;;;;;935855;151;27322;-78
2022/10/06 01:38:15;;;;;;;3.85;2.10;;;16.70;99.90;;;;;;934573;151;27316;-78
2022/10/06 01:40:41;;;;;;;2.92;2.00;;;16.70;99.90;;;;;;935747;151;27367;-78
2022/10/06 01:43:08;;;;;;;2.98;1.90;;;16.70;99.90;;;;;;934674;151;27485;-78
2022/10/06 01:45:34;;;;;;;2.10;1.90;;;16.80;99.90;;;;;;934233;151;27460;-78
2022/10/06 01:48:01;;;;;;;2.33;2.12;;;16.80;99.90;;;;;;935709;151;27307;-77
2022/10/06 01:50:28;;;;;;;1.87;1.70;;;16.90;99.90;;;;;;933982;151;27379;-78
2022/10/06 01:52:56;;;;;;;3.33;2.35;;;16.90;99.90;;;;;;937270;151;27449;-78
2022/10/06 01:55:21;;;;;;;2.60;1.92;;;17.10;99.90;;;;;;932968;151;27435;-78
2022/10/06 01:57:47;;;;;;;2.10;1.98;;;17.20;99.90;;;;;;921650;152;27327;-77
2022/10/06 02:00:14;;;;;;;3.42;2.42;;;17.30;99.90;;;;;;937814;149;27544;-78
2022/10/06 02:02:41;;;;;;;2.90;2.10;;;17.40;99.90;;;;;;934856;149;27338;-77
2022/10/06 02:05:07;;;;;;;2.25;2.02;;;17.50;99.90;;;;;;955847;146;27370;-78
2022/10/06 02:07:37;;;;;;;3.33;1.98;;;17.60;99.90;;;;;;952790;146;27380;-77
2022/10/06 02:10:03;;;;;;;2.90;2.12;;;17.70;99.90;;;;;;952849;146;27412;-77
2022/10/06 02:12:30;;;;;;;2.67;2.33;;;17.80;99.90;;;;;;953034;146;27327;-77
2022/10/06 02:14:56;;;;;;;2.08;1.98;;;17.90;99.90;;;;;;953996;146;27362;-78
2022/10/06 02:17:23;;;;;;;1.90;1.80;;;18.00;99.90;;;;;;953700;146;27368;-78
2022/10/06 02:19:49;;;;;;;3.22;1.90;;;18.10;99.90;;;;;;953680;146;27372;-78
2022/10/06 02:22:16;;;;;;;4.08;2.15;;;18.20;99.90;;;;;;953433;146;27317;-78
2022/10/06 02:24:43;;;;;;;2.17;2.02;;;18.30;99.90;;;;;;953561;146;27337;-78
2022/10/06 02:27:09;;;;;;;2.22;1.75;;;18.40;99.90;;;;;;954269;146;27414;-78
2022/10/06 02:29:36;;;;;;;3.02;1.98;;;18.40;99.90;;;;;;939828;149;27472;-78
2022/10/06 02:32:02;;;;;;;2.30;1.75;;;18.50;99.90;;;;;;938562;149;27411;-78
2022/10/06 02:34:29;;;;;;;2.72;1.98;;;18.60;99.90;;;;;;952685;146;27387;-78
2022/10/06 02:36:56;;;;;;;4.62;3.33;;;18.60;99.80;;;;;;951590;146;27836;-78
2022/10/06 02:39:22;;;;;;;2.95;2.12;;;18.70;99.60;;;;;;951867;146;27477;-78
2022/10/06 02:41:49;;;;;;;3.55;1.98;;;18.70;99.40;;;;;;951852;146;27350;-78
2022/10/06 02:44:15;;;;;;;2.60;2.12;;;18.80;99.10;;;;;;950829;146;27415;-78
2022/10/06 02:46:42;;;;;;;2.10;1.98;;;18.80;99.10;;;;;;951927;146;27367;-78
2022/10/06 02:49:09;;;;;;;2.20;2.00;;;18.80;98.80;;;;;;951313;146;27347;-77
2022/10/06 02:51:35;;;;;;;2.30;2.02;;;18.90;98.60;;;;;;940658;148;27333;-74
2022/10/06 02:54:02;;;;;;;3.45;1.90;;;18.90;98.30;;;;;;939477;149;27293;-75
2022/10/06 02:56:28;;;;;;;2.17;1.85;;;18.90;98.10;;;;;;952895;146;27374;-77
2022/10/06 02:58:55;;;;;;;2.52;1.82;;;18.90;97.90;;;;;;953363;146;27437;-76
2022/10/06 03:01:22;;;;;;;1.90;1.80;;;19.00;97.60;;;;;;950405;146;27376;-74
2022/10/06 03:03:48;;;;;;;2.25;1.50;;;19.00;97.30;;;;;;950976;146;27296;-74
2022/10/06 03:06:23;;;;;;;1.47;1.37;;;19.00;97.00;;;;;;950914;146;27317;-74
2022/10/06 03:08:50;;;;;;;2.40;1.85;;;19.00;96.80;;;;;;951216;146;27374;-74
2022/10/06 03:11:18;;;;;;;1.77;1.67;;;19.00;96.70;;;;;;940231;149;27375;-75
2022/10/06 03:13:43;;;;;;;1.80;1.70;;;19.00;96.50;;;;;;938138;149;27405;-74
2022/10/06 03:16:16;;;;;;;1.70;1.60;;;19.00;96.60;;;;;;951592;146;27313;-74
2022/10/06 03:18:45;;;;;;;1.80;1.70;;;18.90;96.50;;;;;;952200;146;27317;-74
2022/10/06 03:21:13;;;;;;;1.70;1.60;;;18.90;96.40;;;;;;951340;146;27344;-76
2022/10/06 03:23:39;;;;;;;1.62;1.52;;;18.90;96.40;;;;;;951950;146;27851;-74
2022/10/06 03:26:05;;;;;;;2.15;1.80;;;18.90;96.40;;;;;;953796;146;27401;-75
2022/10/06 03:28:32;;;;;;;3.50;1.42;;;18.90;96.40;;;;;;954014;146;27908;-75
2022/10/06 03:31:04;;;;;;;3.27;1.80;;;18.80;96.40;;;;;;953231;146;27337;-74
2022/10/06 03:33:28;;;;;;;2.80;1.98;;;18.80;96.40;;;;;;938149;149;27477;-78
2022/10/06 03:36:03;;;;;;;2.00;1.80;;;18.80;96.40;;;;;;952125;146;27452;-75
2022/10/06 03:38:30;;;;;;;2.87;1.52;;;18.80;96.50;;;;;;949674;146;27317;-74
2022/10/06 03:41:02;;;;;;;1.47;1.37;;;18.70;96.50;;;;;;951586;146;27313;-76
2022/10/06 03:43:28;;;;;;;1.42;1.32;;;18.70;96.50;;;;;;951229;146;27344;-76
2022/10/06 03:45:55;;;;;;;1.77;1.62;;;18.70;96.60;;;;;;951339;146;27381;-74
2022/10/06 03:48:22;;;;;;;1.62;1.50;;;18.70;96.80;;;;;;951678;146;27330;-76
2022/10/06 03:50:57;;;;;;;1.98;1.40;;;18.70;96.80;;;;;;951081;146;27344;-74
2022/10/06 03:53:26;;;;;;;1.87;1.75;;;18.70;96.90;;;;;;949719;146;27358;-77
2022/10/06 03:55:50;;;;;;;8.23;4.42;;;18.70;96.90;;;;;;950036;146;27337;-76
2022/10/06 03:58:18;;;;;;;8.00;4.47;;;18.60;96.90;;;;;;951956;146;27407;-74
2022/10/06 04:00:45;;;;;;;6.30;3.60;;;18.60;96.90;;;;;;943324;146;27397;-75
2022/10/06 04:03:10;;;;;;;4.83;3.02;;;18.60;96.90;;;;;;935316;148;27315;-75
2022/10/06 04:05:36;;;;;;;5.22;2.60;;;18.60;97.00;;;;;;934152;149;27313;-75
2022/10/06 04:08:03;;;;;;;3.30;2.70;;;18.60;97.00;;;;;;932703;149;27338;-74
2022/10/06 04:10:30;;;;;;;4.12;2.02;;;18.60;96.90;;;;;;933947;149;27353;-78
2022/10/06 04:12:56;;;;;;;3.50;1.80;;;18.60;97.00;;;;;;934075;148;27379;-75
2022/10/06 04:15:23;;;;;;;4.00;1.82;;;18.50;96.80;;;;;;934362;149;27343;-74
2022/10/06 04:17:49;;;;;;;2.22;1.80;;;18.50;96.90;;;;;;933436;149;27878;-75
2022/10/06 04:20:16;;;;;;;3.10;1.70;;;18.50;96.90;;;;;;933047;149;27445;-75
2022/10/06 04:22:43;;;;;;;3.77;1.80;;;18.50;96.90;;;;;;935011;149;27499;-77
2022/10/06 04:25:09;;;;;;;1.60;1.50;;;18.40;96.90;;;;;;935279;149;27359;-76
2022/10/06 04:27:36;;;;;;;1.80;1.70;;;18.40;96.90;;;;;;931973;148;27397;-74
2022/10/06 04:30:02;;;;;;;1.87;1.60;;;18.40;96.90;;;;;;936351;149;27276;-75
2022/10/06 04:32:29;;;;;;;1.80;1.30;;;18.40;96.70;;;;;;934061;148;27849;-76
2022/10/06 04:34:56;;;;;;;1.40;1.30;;;18.40;96.20;;;;;;935017;148;27343;-76
2022/10/06 04:37:22;;;;;;;2.00;0.90;;;18.30;95.90;;;;;;933471;149;27483;-75
2022/10/06 04:39:49;;;;;;;3.80;1.12;;;18.30;95.50;;;;;;934414;148;27491;-75
2022/10/06 04:42:15;;;;;;;0.93;0.88;;;18.30;95.10;;;;;;933620;149;27378;-75
2022/10/06 04:44:42;;;;;;;1.05;1.00;;;18.30;94.80;;;;;;933245;149;27457;-75
2022/10/06 04:47:08;;;;;;;1.10;1.00;;;18.30;94.60;;;;;;934658;149;27287;-75
2022/10/06 04:49:35;;;;;;;0.47;0.47;;;18.20;94.20;;;;;;936978;149;27411;-78
2022/10/06 04:52:02;;;;;;;1.05;0.80;;;18.20;94.00;;;;;;935612;149;27467;-75
2022/10/06 04:54:28;;;;;;;0.93;0.65;;;18.20;93.80;;;;;;934087;148;27436;-74
2022/10/06 04:56:55;;;;;;;3.10;0.72;;;18.10;93.80;;;;;;934758;149;27417;-74
2022/10/06 05:00:21;;;;;;;0.95;0.90;;;18.10;93.70;;;;;;935088;148;27460;-76
2022/10/06 05:01:48;;;;;;;0.78;0.78;;;18.10;93.40;;;;;;933925;149;27377;-75
2022/10/06 05:04:15;;;;;;;1.55;0.80;;;18.10;93.20;;;;;;933147;149;27390;-74
2022/10/06 05:06:41;;;;;;;0.80;0.80;;;18.10;93.50;;;;;;934734;148;27439;-75
2022/10/06 05:09:11;;;;;;;2.52;0.90;;;18.10;93.10;;;;;;933929;149;27314;-75
2022/10/06 05:11:37;;;;;;;0.50;0.50;;;18.00;92.90;;;;;;936587;148;27444;-75
2022/10/06 05:14:04;;;;;;;0.85;0.70;;;18.00;93.00;;;;;;933511;149;27823;-76
2022/10/06 05:16:31;;;;;;;3.52;1.20;;;18.00;92.60;;;;;;935518;148;27361;-75
2022/10/06 05:18:57;;;;;;;2.60;0.82;;;18.00;92.90;;;;;;931858;149;27434;-74
2022/10/06 05:21:24;;;;;;;1.70;0.88;;;18.00;92.90;;;;;;935185;149;27302;-74
2022/10/06 05:23:50;;;;;;;2.65;1.00;;;17.90;92.90;;;;;;933579;149;27411;-75
2022/10/06 05:26:17;;;;;;;1.17;0.70;;;17.90;92.70;;;;;;934503;149;27417;-75
2022/10/06 05:28:44;;;;;;;1.35;0.93;;;17.90;92.70;;;;;;933996;149;27486;-77
2022/10/06 05:31:13;;;;;;;0.70;0.70;;;17.90;92.50;;;;;;933332;148;27353;-74
2022/10/06 05:33:39;;;;;;;3.50;1.00;;;17.80;92.30;;;;;;934131;149;27359;-74
2022/10/06 05:36:06;;;;;;;0.95;0.80;;;17.80;92.30;;;;;;934088;148;27340;-74
2022/10/06 05:38:33;;;;;;;1.98;0.78;;;17.70;92.20;;;;;;935424;147;27301;-75
2022/10/06 05:40:59;;;;;;;2.25;1.00;;;17.70;92.20;;;;;;935225;148;27445;-77
2022/10/06 05:43:26;;;;;;;1.17;1.00;;;17.60;92.10;;;;;;935551;148;27352;-75
2022/10/06 05:45:55;;;;;;;2.60;1.35;;;17.60;92.30;;;;;;935617;148;27403;-74
2022/10/06 05:48:22;;;;;;;5.45;1.80;;;17.50;91.80;;;;;;935145;148;27406;-75
2022/10/06 05:50:48;;;;;;;1.80;1.55;;;17.40;91.70;;;;;;932841;148;27326;-75
2022/10/06 05:53:15;;;;;;;4.75;1.67;;;17.30;91.70;;;;;;937620;148;27375;-77
2022/10/06 05:55:42;;;;;;;1.30;0.85;;;17.20;91.60;;;;;;933828;148;27479;-75
2022/10/06 05:58:08;;;;;;;4.37;1.22;;;17.10;91.60;;;;;;934031;148;27770;-74
2022/10/06 06:00:35;;;;;;;1.75;1.05;;;17.00;91.70;;;;;;934129;148;27342;-74
2022/10/06 06:03:01;;;;;;;0.95;0.95;;;16.90;92.00;;;;;;931451;148;27370;-74
2022/10/06 06:05:28;;;;;;;1.20;1.17;;;16.80;92.30;;;;;;932384;148;27496;-77
2022/10/06 06:07:54;;;;;;;2.42;1.60;;;16.70;93.30;;;;;;934215;148;27449;-75
2022/10/06 06:10:21;;;;;;;1.50;1.20;;;16.80;94.50;;;;;;933756;148;27459;-76
2022/10/06 06:12:48;;;;;;;0.98;0.93;;;16.90;95.70;;;;;;934844;148;27300;-75
2022/10/06 06:18:00;;;;;;;5.05;1.60;;;17.40;98.30;;;;;;931803;148;27377;-75
2022/10/06 06:20:26;;;;;;;2.45;1.40;;;17.90;99.40;;;;;;933605;148;27502;-78
2022/10/06 06:22:52;;;;;;;2.72;1.27;;;18.40;99.10;;;;;;935594;148;27369;-75
2022/10/06 06:25:19;;;;;;;2.10;1.12;;;19.00;98.70;;;;;;933951;148;27327;-75
2022/10/06 06:27:45;;;;;;;1.40;1.10;;;19.60;98.30;;;;;;933555;148;27309;-75
2022/10/06 06:30:12;;;;;;;3.25;1.35;;;20.30;97.70;;;;;;932442;148;27336;-76
2022/10/06 06:32:39;;;;;;;3.95;1.27;;;21.00;96.00;;;;;;934325;148;27281;-75
2022/10/06 06:35:05;;;;;;;2.67;1.45;;;21.70;94.30;;;;;;936398;148;27387;-76
2022/10/06 06:37:32;;;;;;;1.87;0.95;;;22.40;92.20;;;;;;933347;148;27799;-75
2022/10/06 06:39:58;;;;;;;2.85;1.25;;;23.00;90.30;;;;;;935376;148;27271;-76
2022/10/06 06:42:25;;;;;;;2.00;1.15;;;23.60;86.50;;;;;;932979;148;27436;-75
2022/10/06 06:44:53;;;;;;;3.40;1.10;;;24.00;81.60;;;;;;935439;148;27404;-76
2022/10/06 06:47:20;;;;;;;2.22;0.80;;;24.50;77.80;;;;;;932376;148;27367;-75
2022/10/06 06:49:46;;;;;;;2.42;0.93;;;24.90;76.50;;;;;;932490;148;28554;-75
2022/10/06 06:52:11;;;;;;;1.47;0.85;;;25.20;75.80;;;;;;934050;148;27339;-76
2022/10/06 06:54:39;;;;;;;1.80;0.90;;;25.70;74.80;;;;;;934022;148;27311;-76
2022/10/06 06:57:05;;;;;;;1.60;0.90;;;26.10;74.00;;;;;;933798;148;27263;-76
2022/10/06 06:59:32;;;;;;;1.45;0.80;;;26.60;72.60;;;;;;935224;148;27963;-78
2022/10/06 07:01:58;;;;;;;2.22;0.90;;;27.20;71.60;;;;;;936229;148;27442;-76
2022/10/06 07:04:24;;;;;;;2.10;1.05;;;27.70;70.00;;;;;;933575;148;28650;-76
2022/10/06 07:06:56;;;;;;;2.17;1.25;;;28.20;68.50;;;;;;936562;148;27292;-75
2022/10/06 07:09:20;;;;;;;2.37;0.80;;;28.80;66.90;;;;;;934014;148;27352;-76
2022/10/06 07:11:48;;;;;;;2.65;1.20;;;29.30;65.30;;;;;;936256;148;27305;-79
2022/10/06 07:14:13;;;;;;;2.20;1.20;;;29.70;63.70;;;;;;934887;148;27375;-76
2022/10/06 07:25:06;;;;;;;2.02;1.10;;;31.30;59.40;;;;;;933069;149;27430;-76
2022/10/06 07:27:33;;;;;;;1.98;1.17;;;31.60;58.40;;;;;;932942;149;27468;-76
2022/10/06 07:30:00;;;;;;;3.25;0.90;;;31.90;57.90;;;;;;931524;149;27373;-78
2022/10/06 07:32:26;;;;;;;1.75;0.98;;;32.20;57.20;;;;;;932005;149;27464;-76
2022/10/06 07:34:53;;;;;;;5.37;1.22;;;32.50;56.70;;;;;;930929;149;27391;-76
2022/10/06 07:37:19;;;;;;;1.98;0.75;;;32.70;55.70;;;;;;930361;149;27348;-76
2022/10/06 07:39:48;;;;;;;5.00;1.20;;;33.00;54.90;;;;;;933768;149;27356;-78
2022/10/06 07:42:13;;;;;;;1.45;0.90;;;33.20;54.20;;;;;;932153;149;27799;-78
2022/10/06 07:44:39;;;;;;;3.08;1.07;;;33.40;53.00;;;;;;930914;149;27423;-77
2022/10/06 07:47:06;;;;;;;2.58;1.10;;;33.50;52.30;;;;;;932151;149;27390;-76
2022/10/06 07:49:32;;;;;;;2.92;0.88;;;33.60;51.40;;;;;;930951;149;27356;-76
2022/10/06 07:51:59;;;;;;;3.40;1.32;;;33.70;51.00;;;;;;933016;149;27708;-76
2022/10/06 07:54:25;;;;;;;2.45;1.05;;;33.70;49.60;;;;;;934670;149;27400;-77
2022/10/06 07:56:52;;;;;;;2.30;1.00;;;33.80;50.00;;;;;;932195;149;27479;-76
2022/10/06 07:59:19;;;;;;;2.40;1.00;;;33.80;49.40;;;;;;931163;149;27497;-76
2022/10/06 08:01:45;;;;;;;1.50;0.90;;;33.90;49.00;;;;;;931027;149;27372;-77
2022/10/06 08:04:12;;;;;;;2.33;1.07;;;33.90;48.40;;;;;;932612;149;27494;-77
2022/10/06 08:06:38;;;;;;;1.35;0.90;;;34.00;48.30;;;;;;933694;149;27488;-76
2022/10/06 08:09:05;;;;;;;3.58;1.05;;;34.00;47.70;;;;;;931793;149;27337;-76
2022/10/06 08:11:32;;;;;;;1.62;0.93;;;34.10;47.60;;;;;;931468;149;27453;-77
2022/10/06 08:13:58;;;;;;;1.32;1.10;;;34.10;47.60;;;;;;932917;149;27406;-76
2022/10/06 08:16:28;;;;;;;1.80;1.10;;;34.20;47.60;;;;;;932221;149;27376;-76
2022/10/06 08:18:52;;;;;;;2.60;1.22;;;34.40;47.30;;;;;;929938;149;27347;-77
2022/10/06 08:21:21;;;;;;;1.52;1.22;;;34.50;47.00;;;;;;932142;149;27380;-78
2022/10/06 08:23:48;;;;;;;1.80;0.80;;;34.70;46.80;;;;;;930590;149;27393;-75
2022/10/06 08:26:14;;;;;;;1.90;1.17;;;34.90;46.90;;;;;;931510;149;27399;-76
2022/10/06 08:28:41;;;;;;;1.95;1.07;;;35.10;46.40;;;;;;932806;149;27425;-77
2022/10/06 08:31:10;;;;;;;2.50;1.00;;;35.30;45.70;;;;;;932486;149;27317;-76
2022/10/06 08:33:37;;;;;;;1.82;1.10;;;35.50;45.00;;;;;;934276;149;26293;-78
2022/10/06 08:36:07;;;;;;;2.92;1.27;;;35.70;44.60;;;;;;931049;149;26269;-76
2022/10/06 08:38:33;;;;;;;2.90;1.20;;;35.70;44.00;;;;;;932974;149;27408;-76
2022/10/06 08:40:59;;;;;;;2.45;1.15;;;35.80;43.80;;;;;;932242;149;26234;-76
2022/10/06 08:43:26;;;;;;;2.12;1.30;;;35.90;43.60;;;;;;933549;149;27370;-76
2022/10/06 08:45:53;;;;;;;2.42;1.35;;;35.80;42.90;;;;;;934098;149;27712;-77
2022/10/06 08:48:20;;;;;;;1.60;1.20;;;35.70;42.30;;;;;;931425;149;26305;-76
2022/10/06 08:51:04;;;;;;;3.05;1.00;;;35.70;42.00;;;;;;929661;149;27448;-76
2022/10/06 08:53:45;;;;;;;3.10;1.15;;;35.50;42.00;;;;;;932900;149;26269;-77
2022/10/06 08:56:16;;;;;;;1.30;0.85;;;35.40;42.30;;;;;;933961;149;27852;-77
2022/10/06 08:58:57;;;;;;;2.60;0.98;;;35.40;42.20;;;;;;932668;149;27672;-77
2022/10/06 09:01:26;;;;;;;1.72;0.95;;;35.40;41.70;;;;;;930478;149;27339;-77
2022/10/06 09:03:53;;;;;;;2.95;1.20;;;35.30;41.40;;;;;;928248;149;27437;-76
2022/10/06 09:06:44;;;;;;;3.25;1.35;;;35.20;41.00;;;;;;916947;154;28333;-78
2022/10/06 09:09:48;;;;;;;2.25;1.02;;;35.00;40.30;;;;;;901662;154;27360;-77
2022/10/06 09:12:35;;;;;;;2.17;1.00;;;34.70;40.30;;;;;;935249;151;27354;-76
2022/10/06 09:15:05;;;;;;;4.85;1.30;;;34.40;40.20;;;;;;933599;151;27429;-76
2022/10/06 09:17:34;;;;;;;2.90;1.02;;;34.00;40.00;;;;;;935360;149;27379;-78
2022/10/06 09:20:01;;;;;;;1.45;0.98;;;33.60;40.00;;;;;;934421;151;27407;-77
2022/10/06 09:22:27;;;;;;;1.47;1.00;;;33.20;39.60;;;;;;933399;151;27375;-78
2022/10/06 09:24:54;;;;;;;2.55;1.30;;;32.80;40.00;;;;;;920378;154;27364;-76
2022/10/06 09:27:23;;;;;;;4.17;1.32;;;32.50;40.10;;;;;;934893;151;27400;-77
2022/10/06 09:29:50;;;;;;;2.75;1.30;;;32.30;40.80;;;;;;933369;151;27335;-77
2022/10/06 09:32:19;;;;;;;3.95;1.47;;;32.20;41.10;;;;;;935654;151;27429;-78
2022/10/06 09:34:48;;;;;;;1.95;1.32;;;32.00;40.80;;;;;;929457;152;27332;-77
2022/10/06 09:37:15;;;;;;;1.00;0.78;;;31.70;40.60;;;;;;934814;151;27437;-77
2022/10/06 09:39:46;;;;;;;1.75;0.75;;;31.50;40.60;;;;;;936417;149;26326;-76
2022/10/06 09:42:11;;;;;;;2.00;1.00;;;31.10;40.30;;;;;;937286;151;27317;-77
2022/10/06 09:44:50;;;;;;;3.65;1.20;;;30.80;40.30;;;;;;937674;151;27407;-79
2022/10/06 09:47:23;;;;;;;1.80;0.93;;;30.50;40.30;;;;;;936483;151;27352;-76
2022/10/06 09:50:02;;;;;;;1.17;0.75;;;30.20;40.20;;;;;;932971;151;27415;-77
2022/10/06 09:52:27;;;;;;;3.47;1.20;;;29.90;40.30;;;;;;920840;152;27377;-76
2022/10/06 09:54:54;;;;;;;3.80;1.30;;;29.60;40.40;;;;;;936655;151;27275;-77
2022/10/06 09:57:21;;;;;;;2.00;0.85;;;29.30;40.50;;;;;;934636;151;27681;-77
2022/10/06 09:59:47;;;;;;;2.92;1.00;;;29.00;40.40;;;;;;935125;151;27471;-76
2022/10/06 10:02:20;;;;;;;1.42;1.00;;;28.70;40.40;;;;;;933797;151;27367;-77
2022/10/06 10:04:46;;;;;;;2.98;0.90;;;28.40;40.40;;;;;;934725;148;27410;-76
2022/10/06 10:07:13;;;;;;;2.47;1.20;;;28.10;40.70;;;;;;935063;148;27339;-76
2022/10/06 10:09:40;;;;;;;4.58;0.95;;;27.70;40.50;;;;;;935587;148;27440;-77
2022/10/06 10:12:26;;;;;;;2.80;1.07;;;27.40;40.50;;;;;;933361;148;27360;-76
2022/10/06 10:14:50;;;;;;;4.25;1.37;;;27.10;40.70;;;;;;934581;148;27348;-76
2022/10/06 10:17:20;;;;;;;2.45;1.27;;;26.80;41.10;;;;;;933169;148;27344;-76
2022/10/06 10:19:52;;;;;;;2.42;1.20;;;26.50;41.20;;;;;;926336;148;27392;-77
2022/10/06 10:22:34;;;;;;;1.50;1.05;;;26.20;41.40;;;;;;934931;148;27428;-76
2022/10/06 10:25:09;;;;;;;2.08;0.93;;;26.00;41.80;;;;;;933613;148;27374;-76
2022/10/06 10:27:39;;;;;;;2.22;0.95;;;25.70;42.10;;;;;;934839;148;27311;-76
2022/10/06 10:30:08;;;;;;;0.93;0.55;;;25.40;42.40;;;;;;935104;148;27313;-77
2022/10/06 10:33:05;;;;;;;3.25;0.88;;;25.30;42.40;;;;;;934607;148;27405;-78
2022/10/06 10:35:32;;;;;;;2.02;0.82;;;25.10;42.50;;;;;;933951;148;27355;-77
2022/10/06 10:38:10;;;;;;;3.67;1.15;;;24.90;42.70;;;;;;933694;148;27338;-77
2022/10/06 10:40:41;;;;;;;2.15;1.12;;;24.70;43.00;;;;;;934336;148;27379;-76
2022/10/06 10:43:12;;;;;;;2.45;1.30;;;24.60;43.40;;;;;;933531;148;27323;-76
2022/10/06 10:45:50;;;;;;;4.10;0.80;;;24.50;43.60;;;;;;934555;148;27499;-78
2022/10/06 10:48:35;;;;;;;3.15;1.00;;;24.30;43.70;;;;;;933954;148;27446;-76
2022/10/06 10:51:02;;;;;;;2.35;1.25;;;24.20;44.10;;;;;;932588;148;27329;-76
2022/10/06 10:53:34;;;;;;;1.25;0.82;;;24.10;44.30;;;;;;934255;148;27386;-77
2022/10/06 10:56:02;;;;;;;1.17;0.75;;;24.00;44.40;;;;;;932553;148;27324;-77
2022/10/06 10:58:27;;;;;;;1.47;1.12;;;23.90;44.40;;;;;;934383;148;27537;-76
2022/10/06 11:00:54;;;;;;;1.85;1.10;;;23.90;44.60;;;;;;933528;148;27367;-76
2022/10/06 11:03:20;;;;;;;1.87;0.90;;;23.80;44.70;;;;;;933172;148;27320;-76
2022/10/06 11:05:56;;;;;;;1.30;0.90;;;23.70;44.70;;;;;;933697;148;27467;-76
2022/10/06 11:08:29;;;;;;;2.05;0.90;;;23.60;44.90;;;;;;935220;148;27334;-76
2022/10/06 11:10:58;;;;;;;1.42;1.00;;;23.60;44.90;;;;;;935034;148;27345;-78
2022/10/06 11:13:24;;;;;;;2.40;0.78;;;23.50;45.00;;;;;;934339;148;27345;-77
2022/10/06 11:15:57;;;;;;;1.52;0.93;;;23.50;45.00;;;;;;933028;148;27348;-76
2022/10/06 11:18:32;;;;;;;3.17;1.25;;;23.40;45.20;;;;;;935116;148;27444;-77
2022/10/06 11:21:02;;;;;;;1.90;0.98;;;23.40;45.30;;;;;;933020;148;27479;-78
2022/10/06 11:23:46;;;;;;;3.70;1.15;;;23.40;45.50;;;;;;935556;148;27419;-76
2022/10/06 11:26:23;;;;;;;3.08;1.37;;;23.40;45.40;;;;;;932706;148;27338;-76
2022/10/06 11:28:51;;;;;;;2.70;1.10;;;23.40;45.60;;;;;;934133;148;27387;-76
2022/10/06 11:31:36;;;;;;;2.10;0.90;;;23.30;45.80;;;;;;933996;148;27429;-77
2022/10/06 11:34:02;;;;;;;2.58;0.90;;;23.30;45.80;;;;;;936663;148;27438;-76
2022/10/06 11:36:47;;;;;;;4.75;1.22;;;23.20;45.80;;;;;;933042;148;27383;-76
2022/10/06 11:39:16;;;;;;;4.45;1.20;;;23.20;45.90;;;;;;934584;148;27344;-76
2022/10/06 11:41:43;;;;;;;5.47;1.10;;;23.20;45.90;;;;;;935020;148;27413;-76
2022/10/06 11:44:37;;;;;;;2.62;1.10;;;23.10;45.70;;;;;;934554;148;27491;-78
2022/10/06 11:47:05;;;;;;;1.47;0.78;;;23.10;45.70;;;;;;933879;148;27486;-76
2022/10/06 11:49:33;;;;;;;2.08;1.35;;;23.10;46.00;;;;;;933756;148;28138;-76
2022/10/06 11:52:05;;;;;;;1.87;0.85;;;23.00;46.00;;;;;;934840;148;27418;-76
2022/10/06 11:54:44;;;;;;;2.52;0.98;;;23.00;46.00;;;;;;936272;148;27321;-76
2022/10/06 11:57:23;;;;;;;3.10;0.80;;;23.00;46.10;;;;;;934841;148;27359;-76
2022/10/06 11:59:52;;;;;;;2.00;1.15;;;23.10;46.10;;;;;;933276;148;27414;-78
2022/10/06 12:02:37;;;;;;;3.77;1.20;;;23.00;46.10;;;;;;933504;148;27464;-76
2022/10/06 12:05:09;;;;;;;2.15;1.12;;;23.00;46.70;;;;;;933380;148;27773;-75
2022/10/06 12:07:54;;;;;;;2.80;1.32;;;23.00;46.20;;;;;;933416;148;27286;-75
2022/10/06 12:10:31;;;;;;;3.92;0.98;;;23.00;46.50;;;;;;933989;148;27405;-77
2022/10/06 12:13:08;;;;;;;4.03;1.62;;;23.00;46.50;;;;;;933747;148;27343;-77
2022/10/06 12:15:46;;;;;;;2.83;1.20;;;22.90;46.30;;;;;;936383;148;27370;-76
2022/10/06 12:18:34;;;;;;;2.15;1.00;;;22.90;46.20;;;;;;932861;148;27318;-77
2022/10/06 12:21:22;;;;;;;2.05;1.10;;;22.90;46.00;;;;;;935049;148;27335;-77
2022/10/06 12:23:48;;;;;;;2.22;0.70;;;22.80;45.90;;;;;;935090;148;27431;-77
2022/10/06 12:26:33;;;;;;;2.00;1.07;;;22.80;46.10;;;;;;932254;148;27350;-78
2022/10/06 12:29:00;;;;;;;1.62;1.00;;;22.80;46.20;;;;;;935157;148;27427;-78
2022/10/06 12:31:32;;;;;;;1.62;0.82;;;22.70;46.20;;;;;;930023;148;27727;-76
2022/10/06 12:33:58;;;;;;;2.40;0.85;;;22.70;46.20;;;;;;934808;148;27760;-76
2022/10/06 12:36:25;;;;;;;2.87;0.90;;;22.70;46.10;;;;;;935634;148;27310;-76
2022/10/06 12:39:06;;;;;;;2.17;1.00;;;22.70;46.10;;;;;;931875;148;27350;-78
2022/10/06 12:41:58;;;;;;;3.22;1.20;;;22.60;46.10;;;;;;935562;148;27401;-76
2022/10/06 12:44:36;;;;;;;2.45;1.17;;;22.60;46.10;;;;;;934472;148;27517;-76
2022/10/06 12:47:11;;;;;;;2.42;1.07;;;22.60;46.10;;;;;;932400;148;27275;-76
2022/10/06 12:49:50;;;;;;;1.27;0.78;;;22.50;46.10;;;;;;932733;148;27410;-76
2022/10/06 12:52:47;;;;;;;2.12;1.05;;;22.50;46.30;;;;;;931991;148;27279;-77
2022/10/06 12:55:28;;;;;;;2.30;0.95;;;22.50;46.30;;;;;;934463;148;27705;-77
2022/10/06 12:57:55;;;;;;;2.60;1.15;;;22.40;46.40;;;;;;934199;148;27366;-78
2022/10/06 13:00:24;;;;;;;2.70;1.10;;;22.40;46.40;;;;;;934080;148;27320;-75
2022/10/06 13:02:50;;;;;;;1.47;0.65;;;22.30;46.30;;;;;;932247;148;27347;-76
2022/10/06 13:05:17;;;;;;;1.15;1.00;;;22.30;46.40;;;;;;935225;148;27834;-78
2022/10/06 13:07:56;;;;;;;0.80;0.60;;;22.30;46.30;;;;;;935401;148;27418;-77
2022/10/06 13:10:23;;;;;;;4.00;1.10;;;22.20;46.20;;;;;;928359;150;27495;-76